sensor_id;sensor_type;location;lat;lon;timestamp;temperature;humidity
16758;DHT22;8497;51.346;12.396;2024-03-02T00:02:05;9.20;99.90
16758;DHT22;8497;51.346;12.396;2024-03-02T00:04:36;9.20;99.90
16758;DHT22;8497;51.346;12.396;2024-03-02T00:07:06;9.20;99.90
16758;DHT22;8497;51.346;12.396;2024-03-02T00:09:35;9.20;99.90
16758;DHT22;8497;51.346;12.396;2024-03-02T00:12:05;9.20;99.90
16758;DHT22;8497;51.346;12.396;2024-03-02T00:14:34;9.20;99.90
16758;DHT22;8497;51.346;12.396;2024-03-02T00:17:03;9.20;99.90
16758;DHT22;8497;51.346;12.396;2024-03-02T00:19:32;9.20;99.90
16758;DHT22;8497;51.346;12.396;2024-03-02T00:22:02;9.20;99.90
16758;DHT22;8497;51.346;12.396;2024-03-02T00:24:33;9.20;99.90
16758;DHT22;8497;51.346;12.396;2024-03-02T00:27:04;9.20;99.90
16758;DHT22;8497;51.346;12.396;2024-03-02T00:29:40;9.20;99.90
16758;DHT22;8497;51.346;12.396;2024-03-02T00:32:13;9.20;99.90
16758;DHT22;8497;51.346;12.396;2024-03-02T00:34:45;9.10;99.90
16758;DHT22;8497;51.346;12.396;2024-03-02T00:37:15;9.20;99.90
16758;DHT22;8497;51.346;12.396;2024-03-02T00:39:43;9.20;99.90
16758;DHT22;8497;51.346;12.396;2024-03-02T00:42:17;9.20;99.90
16758;DHT22;8497;51.346;12.396;2024-03-02T00:44:46;9.20;99.90
16758;DHT22;8497;51.346;12.396;2024-03-02T00:47:14;9.20;99.90
16758;DHT22;8497;51.346;12.396;2024-03-02T00:49:43;9.20;99.90
16758;DHT22;8497;51.346;12.396;2024-03-02T00:52:16;9.10;99.90
16758;DHT22;8497;51.346;12.396;2024-03-02T00:54:47;9.10;99.90
16758;DHT22;8497;51.346;12.396;2024-03-02T00:57:18;8.80;99.90
16758;DHT22;8497;51.346;12.396;2024-03-02T00:59:52;9.10;99.90
16758;DHT22;8497;51.346;12.396;2024-03-02T01:02:21;9.10;99.90
16758;DHT22;8497;51.346;12.396;2024-03-02T01:04:58;9.10;99.90
16758;DHT22;8497;51.346;12.396;2024-03-02T01:07:31;9.10;99.90
16758;DHT22;8497;51.346;12.396;2024-03-02T01:09:59;9.10;99.90
16758;DHT22;8497;51.346;12.396;2024-03-02T01:12:28;9.10;99.90
16758;DHT22;8497;51.346;12.396;2024-03-02T01:14:59;9.10;99.90
16758;DHT22;8497;51.346;12.396;2024-03-02T01:17:27;9.20;99.90
16758;DHT22;8497;51.346;12.396;2024-03-02T01:19:56;9.10;99.90
16758;DHT22;8497;51.346;12.396;2024-03-02T01:22:24;9.20;99.90
16758;DHT22;8497;51.346;12.396;2024-03-02T01:24:55;9.20;99.90
16758;DHT22;8497;51.346;12.396;2024-03-02T01:27:23;9.20;99.90
16758;DHT22;8497;51.346;12.396;2024-03-02T01:29:54;9.20;99.90
16758;DHT22;8497;51.346;12.396;2024-03-02T01:32:23;9.20;99.90
16758;DHT22;8497;51.346;12.396;2024-03-02T01:34:51;9.20;99.90
16758;DHT22;8497;51.346;12.396;2024-03-02T01:37:20;9.10;99.90
16758;DHT22;8497;51.346;12.396;2024-03-02T01:39:49;9.10;99.90
16758;DHT22;8497;51.346;12.396;2024-03-02T01:42:19;9.10;99.90
16758;DHT22;8497;51.346;12.396;2024-03-02T01:44:48;9.00;99.90
16758;DHT22;8497;51.346;12.396;2024-03-02T01:47:17;9.00;99.90
16758;DHT22;8497;51.346;12.396;2024-03-02T01:49:45;9.00;99.90
16758;DHT22;8497;51.346;12.396;2024-03-02T01:52:17;9.00;99.90
16758;DHT22;8497;51.346;12.396;2024-03-02T01:54:46;9.00;99.90
16758;DHT22;8497;51.346;12.396;2024-03-02T01:57:15;9.00;99.90
16758;DHT22;8497;51.346;12.396;2024-03-02T01:59:46;9.00;99.90
16758;DHT22;8497;51.346;12.396;2024-03-02T02:02:15;9.00;99.90
16758;DHT22;8497;51.346;12.396;2024-03-02T02:04:44;9.10;99.90
16758;DHT22;8497;51.346;12.396;2024-03-02T02:07:13;9.10;99.90
16758;DHT22;8497;51.346;12.396;2024-03-02T02:09:43;9.10;99.90
16758;DHT22;8497;51.346;12.396;2024-03-02T02:12:12;9.10;99.90
16758;DHT22;8497;51.346;12.396;2024-03-02T02:14:49;9.00;99.90
16758;DHT22;8497;51.346;12.396;2024-03-02T02:17:18;9.10;99.90
16758;DHT22;8497;51.346;12.396;2024-03-02T02:19:47;9.10;99.90
16758;DHT22;8497;51.346;12.396;2024-03-02T02:22:17;9.00;99.90
16758;DHT22;8497;51.346;12.396;2024-03-02T02:24:56;9.00;99.90
16758;DHT22;8497;51.346;12.396;2024-03-02T02:27:29;9.00;99.90
16758;DHT22;8497;51.346;12.396;2024-03-02T02:29:57;9.00;99.90
16758;DHT22;8497;51.346;12.396;2024-03-02T02:32:28;9.00;99.90
16758;DHT22;8497;51.346;12.396;2024-03-02T02:35:02;9.10;99.90
16758;DHT22;8497;51.346;12.396;2024-03-02T02:37:34;9.10;99.90
16758;DHT22;8497;51.346;12.396;2024-03-02T02:40:04;9.10;99.90
16758;DHT22;8497;51.346;12.396;2024-03-02T02:42:40;8.80;99.90
16758;DHT22;8497;51.346;12.396;2024-03-02T02:45:20;9.10;99.90
16758;DHT22;8497;51.346;12.396;2024-03-02T02:47:51;9.20;99.90
16758;DHT22;8497;51.346;12.396;2024-03-02T02:50:41;9.20;99.90
16758;DHT22;8497;51.346;12.396;2024-03-02T02:53:14;9.20;99.90
16758;DHT22;8497;51.346;12.396;2024-03-02T02:55:44;9.10;99.90
16758;DHT22;8497;51.346;12.396;2024-03-02T02:58:13;9.10;99.90
16758;DHT22;8497;51.346;12.396;2024-03-02T03:00:49;9.20;99.90
16758;DHT22;8497;51.346;12.396;2024-03-02T03:03:37;9.10;99.90
16758;DHT22;8497;51.346;12.396;2024-03-02T03:06:16;9.10;99.90
16758;DHT22;8497;51.346;12.396;2024-03-02T03:09:09;9.10;99.90
16758;DHT22;8497;51.346;12.396;2024-03-02T03:11:49;9.10;99.90
16758;DHT22;8497;51.346;12.396;2024-03-02T03:14:17;9.10;99.90
16758;DHT22;8497;51.346;12.396;2024-03-02T03:16:50;9.10;99.90
16758;DHT22;8497;51.346;12.396;2024-03-02T03:19:28;9.10;99.90
16758;DHT22;8497;51.346;12.396;2024-03-02T03:21:58;9.10;99.90
16758;DHT22;8497;51.346;12.396;2024-03-02T03:24:31;9.10;99.90
16758;DHT22;8497;51.346;12.396;2024-03-02T03:27:16;9.10;99.90
16758;DHT22;8497;51.346;12.396;2024-03-02T03:30:07;9.10;99.90
16758;DHT22;8497;51.346;12.396;2024-03-02T03:32:52;9.10;99.90
16758;DHT22;8497;51.346;12.396;2024-03-02T03:35:54;9.10;99.90
16758;DHT22;8497;51.346;12.396;2024-03-02T03:38:42;9.10;99.90
16758;DHT22;8497;51.346;12.396;2024-03-02T03:41:44;9.10;99.90
16758;DHT22;8497;51.346;12.396;2024-03-02T03:44:25;9.10;99.90
16758;DHT22;8497;51.346;12.396;2024-03-02T03:47:00;9.10;99.90
16758;DHT22;8497;51.346;12.396;2024-03-02T03:49:45;9.10;99.90
16758;DHT22;8497;51.346;12.396;2024-03-02T03:52:18;9.10;99.90
16758;DHT22;8497;51.346;12.396;2024-03-02T03:54:58;9.10;99.90
16758;DHT22;8497;51.346;12.396;2024-03-02T03:57:32;9.10;99.90
16758;DHT22;8497;51.346;12.396;2024-03-02T04:00:03;9.10;99.90
16758;DHT22;8497;51.346;12.396;2024-03-02T04:02:33;9.10;99.90
16758;DHT22;8497;51.346;12.396;2024-03-02T04:05:02;9.00;99.90
16758;DHT22;8497;51.346;12.396;2024-03-02T04:07:36;9.00;99.90
16758;DHT22;8497;51.346;12.396;2024-03-02T04:10:08;9.00;99.90
16758;DHT22;8497;51.346;12.396;2024-03-02T04:12:41;9.00;99.90
16758;DHT22;8497;51.346;12.396;2024-03-02T04:15:15;9.00;99.90
16758;DHT22;8497;51.346;12.396;2024-03-02T04:18:04;9.00;99.90
16758;DHT22;8497;51.346;12.396;2024-03-02T04:20:43;9.00;99.90
16758;DHT22;8497;51.346;12.396;2024-03-02T04:23:12;8.90;99.90
16758;DHT22;8497;51.346;12.396;2024-03-02T04:25:48;8.90;99.90
16758;DHT22;8497;51.346;12.396;2024-03-02T04:28:20;8.90;99.90
16758;DHT22;8497;51.346;12.396;2024-03-02T04:30:51;8.90;99.90
16758;DHT22;8497;51.346;12.396;2024-03-02T04:33:20;8.90;99.90
16758;DHT22;8497;51.346;12.396;2024-03-02T04:35:49;8.90;99.90
16758;DHT22;8497;51.346;12.396;2024-03-02T04:38:43;8.90;99.90
16758;DHT22;8497;51.346;12.396;2024-03-02T04:41:15;8.90;99.90
16758;DHT22;8497;51.346;12.396;2024-03-02T04:43:58;8.90;99.90
16758;DHT22;8497;51.346;12.396;2024-03-02T04:46:33;8.90;99.90
16758;DHT22;8497;51.346;12.396;2024-03-02T04:49:16;8.80;99.90
16758;DHT22;8497;51.346;12.396;2024-03-02T04:51:51;8.80;99.90
16758;DHT22;8497;51.346;12.396;2024-03-02T04:54:35;8.80;99.90
16758;DHT22;8497;51.346;12.396;2024-03-02T04:57:38;8.90;99.90
16758;DHT22;8497;51.346;12.396;2024-03-02T05:00:24;8.90;99.90
16758;DHT22;8497;51.346;12.396;2024-03-02T05:03:12;8.90;99.90
16758;DHT22;8497;51.346;12.396;2024-03-02T05:05:51;8.90;99.90
16758;DHT22;8497;51.346;12.396;2024-03-02T05:08:30;8.90;99.90
16758;DHT22;8497;51.346;12.396;2024-03-02T05:11:11;8.90;99.90
16758;DHT22;8497;51.346;12.396;2024-03-02T05:14:32;8.90;99.90
16758;DHT22;8497;51.346;12.396;2024-03-02T05:17:12;8.90;99.90
16758;DHT22;8497;51.346;12.396;2024-03-02T05:19:48;8.90;99.90
16758;DHT22;8497;51.346;12.396;2024-03-02T05:22:18;8.80;99.90
16758;DHT22;8497;51.346;12.396;2024-03-02T05:24:53;8.90;99.90
16758;DHT22;8497;51.346;12.396;2024-03-02T05:27:22;8.90;99.90
16758;DHT22;8497;51.346;12.396;2024-03-02T05:29:50;8.80;99.90
16758;DHT22;8497;51.346;12.396;2024-03-02T05:32:21;8.80;99.90
16758;DHT22;8497;51.346;12.396;2024-03-02T05:34:51;8.80;99.90
16758;DHT22;8497;51.346;12.396;2024-03-02T05:37:19;8.80;99.90
16758;DHT22;8497;51.346;12.396;2024-03-02T05:39:55;8.80;99.90
16758;DHT22;8497;51.346;12.396;2024-03-02T05:42:31;8.80;99.90
16758;DHT22;8497;51.346;12.396;2024-03-02T05:45:00;8.80;99.90
16758;DHT22;8497;51.346;12.396;2024-03-02T05:47:35;8.80;99.90
16758;DHT22;8497;51.346;12.396;2024-03-02T05:50:07;8.80;99.90
16758;DHT22;8497;51.346;12.396;2024-03-02T05:52:47;8.80;99.90
16758;DHT22;8497;51.346;12.396;2024-03-02T05:55:33;8.80;99.90
16758;DHT22;8497;51.346;12.396;2024-03-02T05:58:05;8.80;99.90
16758;DHT22;8497;51.346;12.396;2024-03-02T06:00:49;8.80;99.90
16758;DHT22;8497;51.346;12.396;2024-03-02T06:03:27;8.90;99.90
16758;DHT22;8497;51.346;12.396;2024-03-02T06:05:55;8.90;99.90
16758;DHT22;8497;51.346;12.396;2024-03-02T06:08:24;8.90;99.90
16758;DHT22;8497;51.346;12.396;2024-03-02T06:10:53;8.90;99.90
16758;DHT22;8497;51.346;12.396;2024-03-02T06:13:23;8.90;99.90
16758;DHT22;8497;51.346;12.396;2024-03-02T06:15:52;8.90;99.90
16758;DHT22;8497;51.346;12.396;2024-03-02T06:18:22;8.90;99.90
16758;DHT22;8497;51.346;12.396;2024-03-02T06:20:51;8.90;99.90
16758;DHT22;8497;51.346;12.396;2024-03-02T06:23:19;9.00;99.90
16758;DHT22;8497;51.346;12.396;2024-03-02T06:25:48;8.90;99.90
16758;DHT22;8497;51.346;12.396;2024-03-02T06:28:17;9.00;99.90
16758;DHT22;8497;51.346;12.396;2024-03-02T06:30:47;9.00;99.90
16758;DHT22;8497;51.346;12.396;2024-03-02T06:33:16;9.00;99.90
16758;DHT22;8497;51.346;12.396;2024-03-02T06:35:46;9.00;99.90
16758;DHT22;8497;51.346;12.396;2024-03-02T06:38:16;9.00;99.90
16758;DHT22;8497;51.346;12.396;2024-03-02T06:40:44;9.00;99.90
16758;DHT22;8497;51.346;12.396;2024-03-02T06:43:13;9.00;99.90
16758;DHT22;8497;51.346;12.396;2024-03-02T06:45:42;9.10;99.90
16758;DHT22;8497;51.346;12.396;2024-03-02T06:48:10;9.10;99.90
16758;DHT22;8497;51.346;12.396;2024-03-02T06:50:39;9.10;99.90
16758;DHT22;8497;51.346;12.396;2024-03-02T06:53:09;9.20;99.90
16758;DHT22;8497;51.346;12.396;2024-03-02T06:55:38;9.20;99.90
16758;DHT22;8497;51.346;12.396;2024-03-02T06:58:06;9.30;99.90
16758;DHT22;8497;51.346;12.396;2024-03-02T07:00:38;9.30;99.90
16758;DHT22;8497;51.346;12.396;2024-03-02T07:03:11;9.40;99.90
16758;DHT22;8497;51.346;12.396;2024-03-02T07:05:40;9.40;99.90
16758;DHT22;8497;51.346;12.396;2024-03-02T07:08:12;9.40;99.90
16758;DHT22;8497;51.346;12.396;2024-03-02T07:10:40;9.50;99.90
16758;DHT22;8497;51.346;12.396;2024-03-02T07:13:10;9.50;99.90
16758;DHT22;8497;51.346;12.396;2024-03-02T07:15:40;9.50;99.90
16758;DHT22;8497;51.346;12.396;2024-03-02T07:18:21;9.60;99.90
16758;DHT22;8497;51.346;12.396;2024-03-02T07:20:50;9.60;99.90
16758;DHT22;8497;51.346;12.396;2024-03-02T07:23:20;9.60;99.90
16758;DHT22;8497;51.346;12.396;2024-03-02T07:25:51;9.60;99.90
16758;DHT22;8497;51.346;12.396;2024-03-02T07:28:24;9.60;99.90
16758;DHT22;8497;51.346;12.396;2024-03-02T07:30:58;9.60;99.90
16758;DHT22;8497;51.346;12.396;2024-03-02T07:33:30;9.60;99.90
16758;DHT22;8497;51.346;12.396;2024-03-02T07:35:59;9.60;99.90
16758;DHT22;8497;51.346;12.396;2024-03-02T07:38:32;9.60;99.90
16758;DHT22;8497;51.346;12.396;2024-03-02T07:41:02;9.60;99.90
16758;DHT22;8497;51.346;12.396;2024-03-02T07:43:32;9.60;99.90
16758;DHT22;8497;51.346;12.396;2024-03-02T07:46:01;9.70;99.90
16758;DHT22;8497;51.346;12.396;2024-03-02T07:48:30;9.70;99.90
16758;DHT22;8497;51.346;12.396;2024-03-02T07:50:59;9.70;99.90
16758;DHT22;8497;51.346;12.396;2024-03-02T07:53:29;9.70;99.90
16758;DHT22;8497;51.346;12.396;2024-03-02T07:55:59;9.70;99.90
16758;DHT22;8497;51.346;12.396;2024-03-02T07:58:30;9.70;99.90
16758;DHT22;8497;51.346;12.396;2024-03-02T08:01:14;9.70;99.90
16758;DHT22;8497;51.346;12.396;2024-03-02T08:03:44;9.80;99.90
16758;DHT22;8497;51.346;12.396;2024-03-02T08:06:15;9.80;99.90
16758;DHT22;8497;51.346;12.396;2024-03-02T08:08:44;9.80;99.90
16758;DHT22;8497;51.346;12.396;2024-03-02T08:11:14;9.80;99.90
16758;DHT22;8497;51.346;12.396;2024-03-02T08:13:42;9.80;99.90
16758;DHT22;8497;51.346;12.396;2024-03-02T08:16:11;9.80;99.90
16758;DHT22;8497;51.346;12.396;2024-03-02T08:18:40;9.90;99.90
16758;DHT22;8497;51.346;12.396;2024-03-02T08:21:09;9.90;99.90
16758;DHT22;8497;51.346;12.396;2024-03-02T08:23:38;10.00;99.90
16758;DHT22;8497;51.346;12.396;2024-03-02T08:26:10;10.00;99.90
16758;DHT22;8497;51.346;12.396;2024-03-02T08:28:42;10.10;99.90
16758;DHT22;8497;51.346;12.396;2024-03-02T08:31:10;10.10;99.90
16758;DHT22;8497;51.346;12.396;2024-03-02T08:33:39;10.20;99.90
16758;DHT22;8497;51.346;12.396;2024-03-02T08:36:09;10.30;99.90
16758;DHT22;8497;51.346;12.396;2024-03-02T08:38:38;10.30;99.90
16758;DHT22;8497;51.346;12.396;2024-03-02T08:41:06;10.30;99.90
16758;DHT22;8497;51.346;12.396;2024-03-02T08:43:35;10.40;99.90
16758;DHT22;8497;51.346;12.396;2024-03-02T08:46:05;10.40;99.90
16758;DHT22;8497;51.346;12.396;2024-03-02T08:48:34;10.50;99.90
16758;DHT22;8497;51.346;12.396;2024-03-02T08:51:03;10.50;99.90
16758;DHT22;8497;51.346;12.396;2024-03-02T08:53:34;10.50;99.90
16758;DHT22;8497;51.346;12.396;2024-03-02T08:56:04;10.50;99.90
16758;DHT22;8497;51.346;12.396;2024-03-02T08:58:33;10.60;99.90
16758;DHT22;8497;51.346;12.396;2024-03-02T09:01:02;10.60;99.90
16758;DHT22;8497;51.346;12.396;2024-03-02T09:03:35;10.70;99.90
16758;DHT22;8497;51.346;12.396;2024-03-02T09:06:04;10.80;99.90
16758;DHT22;8497;51.346;12.396;2024-03-02T09:08:33;10.90;99.90
16758;DHT22;8497;51.346;12.396;2024-03-02T09:11:03;11.00;99.90
16758;DHT22;8497;51.346;12.396;2024-03-02T09:13:32;11.00;99.90
16758;DHT22;8497;51.346;12.396;2024-03-02T09:16:01;11.10;99.90
16758;DHT22;8497;51.346;12.396;2024-03-02T09:18:32;11.20;99.90
16758;DHT22;8497;51.346;12.396;2024-03-02T09:21:04;11.30;99.90
16758;DHT22;8497;51.346;12.396;2024-03-02T09:23:33;11.40;99.90
16758;DHT22;8497;51.346;12.396;2024-03-02T09:26:02;11.40;99.90
16758;DHT22;8497;51.346;12.396;2024-03-02T09:28:31;11.40;99.90
16758;DHT22;8497;51.346;12.396;2024-03-02T09:31:01;11.50;99.90
16758;DHT22;8497;51.346;12.396;2024-03-02T09:33:36;11.60;99.90
16758;DHT22;8497;51.346;12.396;2024-03-02T09:36:10;11.70;99.90
16758;DHT22;8497;51.346;12.396;2024-03-02T09:38:47;11.70;99.90
16758;DHT22;8497;51.346;12.396;2024-03-02T09:41:16;11.80;99.90
16758;DHT22;8497;51.346;12.396;2024-03-02T09:43:45;11.80;99.90
16758;DHT22;8497;51.346;12.396;2024-03-02T09:46:14;11.90;99.90
16758;DHT22;8497;51.346;12.396;2024-03-02T09:48:45;11.90;99.90
16758;DHT22;8497;51.346;12.396;2024-03-02T09:51:14;11.90;99.90
16758;DHT22;8497;51.346;12.396;2024-03-02T09:53:47;11.90;99.90
16758;DHT22;8497;51.346;12.396;2024-03-02T09:56:16;11.90;99.90
16758;DHT22;8497;51.346;12.396;2024-03-02T09:58:46;11.90;99.90
16758;DHT22;8497;51.346;12.396;2024-03-02T10:01:15;11.90;99.90
16758;DHT22;8497;51.346;12.396;2024-03-02T10:03:46;11.80;99.90
16758;DHT22;8497;51.346;12.396;2024-03-02T10:06:19;11.80;99.90
16758;DHT22;8497;51.346;12.396;2024-03-02T10:08:48;11.80;99.90
16758;DHT22;8497;51.346;12.396;2024-03-02T10:11:26;11.80;99.90
16758;DHT22;8497;51.346;12.396;2024-03-02T10:14:05;11.80;99.90
16758;DHT22;8497;51.346;12.396;2024-03-02T10:16:37;11.90;99.90
16758;DHT22;8497;51.346;12.396;2024-03-02T10:19:19;12.00;99.90
16758;DHT22;8497;51.346;12.396;2024-03-02T10:21:51;12.10;99.90
16758;DHT22;8497;51.346;12.396;2024-03-02T10:24:37;12.20;99.90
16758;DHT22;8497;51.346;12.396;2024-03-02T10:27:27;12.30;99.90
16758;DHT22;8497;51.346;12.396;2024-03-02T10:30:05;12.60;99.90
16758;DHT22;8497;51.346;12.396;2024-03-02T10:32:35;12.70;99.90
16758;DHT22;8497;51.346;12.396;2024-03-02T10:35:06;12.90;99.80
16758;DHT22;8497;51.346;12.396;2024-03-02T10:37:35;13.10;99.50
16758;DHT22;8497;51.346;12.396;2024-03-02T10:40:05;13.10;99.30
16758;DHT22;8497;51.346;12.396;2024-03-02T10:42:38;13.10;99.00
16758;DHT22;8497;51.346;12.396;2024-03-02T10:45:10;13.30;98.90
16758;DHT22;8497;51.346;12.396;2024-03-02T10:47:42;13.30;98.60
16758;DHT22;8497;51.346;12.396;2024-03-02T10:50:13;13.40;98.60
16758;DHT22;8497;51.346;12.396;2024-03-02T10:52:42;13.50;98.40
16758;DHT22;8497;51.346;12.396;2024-03-02T10:55:12;13.60;98.40
16758;DHT22;8497;51.346;12.396;2024-03-02T10:57:42;13.80;98.30
16758;DHT22;8497;51.346;12.396;2024-03-02T11:00:18;13.90;98.10
16758;DHT22;8497;51.346;12.396;2024-03-02T11:02:54;13.90;97.70
16758;DHT22;8497;51.346;12.396;2024-03-02T11:05:31;13.90;97.50
16758;DHT22;8497;51.346;12.396;2024-03-02T11:08:06;13.90;97.20
16758;DHT22;8497;51.346;12.396;2024-03-02T11:10:37;13.90;97.20
16758;DHT22;8497;51.346;12.396;2024-03-02T11:13:09;14.00;97.10
16758;DHT22;8497;51.346;12.396;2024-03-02T11:15:40;14.00;97.00
16758;DHT22;8497;51.346;12.396;2024-03-02T11:18:13;14.10;96.90
16758;DHT22;8497;51.346;12.396;2024-03-02T11:20:48;14.20;96.70
16758;DHT22;8497;51.346;12.396;2024-03-02T11:23:17;14.30;96.60
16758;DHT22;8497;51.346;12.396;2024-03-02T11:25:45;14.30;96.30
16758;DHT22;8497;51.346;12.396;2024-03-02T11:28:14;14.40;96.20
16758;DHT22;8497;51.346;12.396;2024-03-02T11:30:49;14.50;96.10
16758;DHT22;8497;51.346;12.396;2024-03-02T11:33:27;14.60;96.00
16758;DHT22;8497;51.346;12.396;2024-03-02T11:36:00;14.60;95.70
16758;DHT22;8497;51.346;12.396;2024-03-02T11:38:31;14.60;95.50
16758;DHT22;8497;51.346;12.396;2024-03-02T11:41:01;14.60;95.40
16758;DHT22;8497;51.346;12.396;2024-03-02T11:43:31;14.60;95.30
16758;DHT22;8497;51.346;12.396;2024-03-02T11:46:01;14.60;95.20
16758;DHT22;8497;51.346;12.396;2024-03-02T11:48:35;14.70;95.50
16758;DHT22;8497;51.346;12.396;2024-03-02T11:51:06;14.80;95.20
16758;DHT22;8497;51.346;12.396;2024-03-02T11:53:35;14.80;95.10
16758;DHT22;8497;51.346;12.396;2024-03-02T11:56:09;14.90;94.90
16758;DHT22;8497;51.346;12.396;2024-03-02T11:58:40;14.90;94.80
16758;DHT22;8497;51.346;12.396;2024-03-02T12:01:10;14.90;94.30
16758;DHT22;8497;51.346;12.396;2024-03-02T12:03:40;14.90;94.30
16758;DHT22;8497;51.346;12.396;2024-03-02T12:06:11;14.90;94.20
16758;DHT22;8497;51.346;12.396;2024-03-02T12:08:41;15.00;94.20
16758;DHT22;8497;51.346;12.396;2024-03-02T12:11:13;15.10;94.20
16758;DHT22;8497;51.346;12.396;2024-03-02T12:13:52;15.20;94.00
16758;DHT22;8497;51.346;12.396;2024-03-02T12:16:24;15.30;93.80
16758;DHT22;8497;51.346;12.396;2024-03-02T12:18:53;15.30;93.70
16758;DHT22;8497;51.346;12.396;2024-03-02T12:21:26;15.40;93.50
16758;DHT22;8497;51.346;12.396;2024-03-02T12:23:58;15.40;93.30
16758;DHT22;8497;51.346;12.396;2024-03-02T12:26:28;15.30;93.10
16758;DHT22;8497;51.346;12.396;2024-03-02T12:28:58;15.30;93.10
16758;DHT22;8497;51.346;12.396;2024-03-02T12:31:26;15.20;93.00
16758;DHT22;8497;51.346;12.396;2024-03-02T12:33:55;15.20;92.70
16758;DHT22;8497;51.346;12.396;2024-03-02T12:36:25;15.20;92.60
16758;DHT22;8497;51.346;12.396;2024-03-02T12:38:54;15.20;92.50
16758;DHT22;8497;51.346;12.396;2024-03-02T12:41:24;15.20;92.30
16758;DHT22;8497;51.346;12.396;2024-03-02T12:43:55;15.20;92.20
16758;DHT22;8497;51.346;12.396;2024-03-02T12:46:24;15.30;92.40
16758;DHT22;8497;51.346;12.396;2024-03-02T12:48:53;15.40;92.50
16758;DHT22;8497;51.346;12.396;2024-03-02T12:51:22;15.60;92.40
16758;DHT22;8497;51.346;12.396;2024-03-02T12:53:54;15.80;92.40
16758;DHT22;8497;51.346;12.396;2024-03-02T12:56:25;15.90;92.10
16758;DHT22;8497;51.346;12.396;2024-03-02T12:58:54;15.90;91.60
16758;DHT22;8497;51.346;12.396;2024-03-02T13:01:23;15.90;91.30
16758;DHT22;8497;51.346;12.396;2024-03-02T13:03:52;15.90;91.00
16758;DHT22;8497;51.346;12.396;2024-03-02T13:06:25;15.80;90.40
16758;DHT22;8497;51.346;12.396;2024-03-02T13:08:57;15.80;90.20
16758;DHT22;8497;51.346;12.396;2024-03-02T13:11:26;15.80;90.10
16758;DHT22;8497;51.346;12.396;2024-03-02T13:13:54;15.80;90.10
16758;DHT22;8497;51.346;12.396;2024-03-02T13:16:23;15.80;90.30
16758;DHT22;8497;51.346;12.396;2024-03-02T13:18:58;15.80;90.00
16758;DHT22;8497;51.346;12.396;2024-03-02T13:21:29;15.90;89.70
16758;DHT22;8497;51.346;12.396;2024-03-02T13:23:59;15.90;89.60
16758;DHT22;8497;51.346;12.396;2024-03-02T13:26:28;15.90;89.40
16758;DHT22;8497;51.346;12.396;2024-03-02T13:28:57;15.90;89.30
16758;DHT22;8497;51.346;12.396;2024-03-02T13:31:26;15.90;90.10
16758;DHT22;8497;51.346;12.396;2024-03-02T13:33:54;15.90;89.60
16758;DHT22;8497;51.346;12.396;2024-03-02T13:36:23;16.00;89.80
16758;DHT22;8497;51.346;12.396;2024-03-02T13:38:52;16.10;90.20
16758;DHT22;8497;51.346;12.396;2024-03-02T13:41:22;16.00;89.70
16758;DHT22;8497;51.346;12.396;2024-03-02T13:43:50;15.90;90.00
16758;DHT22;8497;51.346;12.396;2024-03-02T13:46:20;15.90;90.10
16758;DHT22;8497;51.346;12.396;2024-03-02T13:48:49;16.00;90.10
16758;DHT22;8497;51.346;12.396;2024-03-02T13:51:18;15.90;90.00
16758;DHT22;8497;51.346;12.396;2024-03-02T13:53:47;15.90;89.80
16758;DHT22;8497;51.346;12.396;2024-03-02T13:56:15;15.80;89.50
16758;DHT22;8497;51.346;12.396;2024-03-02T13:58:45;15.90;89.70
16758;DHT22;8497;51.346;12.396;2024-03-02T14:01:16;15.90;89.60
16758;DHT22;8497;51.346;12.396;2024-03-02T14:03:45;15.90;90.00
16758;DHT22;8497;51.346;12.396;2024-03-02T14:06:14;15.90;89.60
16758;DHT22;8497;51.346;12.396;2024-03-02T14:08:43;15.80;89.30
16758;DHT22;8497;51.346;12.396;2024-03-02T14:11:14;15.70;89.40
16758;DHT22;8497;51.346;12.396;2024-03-02T14:13:46;15.60;89.60
16758;DHT22;8497;51.346;12.396;2024-03-02T14:16:20;15.50;89.60
16758;DHT22;8497;51.346;12.396;2024-03-02T14:18:49;15.50;89.70
16758;DHT22;8497;51.346;12.396;2024-03-02T14:21:19;15.40;89.90
16758;DHT22;8497;51.346;12.396;2024-03-02T14:23:50;15.40;89.90
16758;DHT22;8497;51.346;12.396;2024-03-02T14:26:31;15.40;90.00
16758;DHT22;8497;51.346;12.396;2024-03-02T14:29:03;15.50;89.80
16758;DHT22;8497;51.346;12.396;2024-03-02T14:31:32;15.50;89.70
16758;DHT22;8497;51.346;12.396;2024-03-02T14:34:01;15.50;89.70
16758;DHT22;8497;51.346;12.396;2024-03-02T14:36:30;15.50;89.70
16758;DHT22;8497;51.346;12.396;2024-03-02T14:39:00;15.50;89.60
16758;DHT22;8497;51.346;12.396;2024-03-02T14:41:29;15.50;89.50
16758;DHT22;8497;51.346;12.396;2024-03-02T14:43:57;15.50;89.20
16758;DHT22;8497;51.346;12.396;2024-03-02T14:46:28;15.60;89.20
16758;DHT22;8497;51.346;12.396;2024-03-02T14:48:57;15.50;88.90
16758;DHT22;8497;51.346;12.396;2024-03-02T14:51:26;15.50;88.70
16758;DHT22;8497;51.346;12.396;2024-03-02T14:53:57;15.50;88.90
16758;DHT22;8497;51.346;12.396;2024-03-02T14:56:25;15.50;89.90
16758;DHT22;8497;51.346;12.396;2024-03-02T14:58:55;15.50;89.30
16758;DHT22;8497;51.346;12.396;2024-03-02T15:01:27;15.40;89.20
16758;DHT22;8497;51.346;12.396;2024-03-02T15:03:58;15.30;89.00
16758;DHT22;8497;51.346;12.396;2024-03-02T15:06:26;15.20;89.30
16758;DHT22;8497;51.346;12.396;2024-03-02T15:08:55;15.10;89.30
16758;DHT22;8497;51.346;12.396;2024-03-02T15:11:24;15.00;89.40
16758;DHT22;8497;51.346;12.396;2024-03-02T15:13:53;15.00;89.60
16758;DHT22;8497;51.346;12.396;2024-03-02T15:16:21;15.00;89.90
16758;DHT22;8497;51.346;12.396;2024-03-02T15:18:56;15.00;90.00
16758;DHT22;8497;51.346;12.396;2024-03-02T15:21:27;14.90;90.00
16758;DHT22;8497;51.346;12.396;2024-03-02T15:23:57;14.90;90.10
16758;DHT22;8497;51.346;12.396;2024-03-02T15:26:25;14.90;90.10
16758;DHT22;8497;51.346;12.396;2024-03-02T15:28:54;14.80;90.20
16758;DHT22;8497;51.346;12.396;2024-03-02T15:31:25;14.80;90.20
16758;DHT22;8497;51.346;12.396;2024-03-02T15:33:55;14.80;90.40
16758;DHT22;8497;51.346;12.396;2024-03-02T15:36:24;14.80;90.50
16758;DHT22;8497;51.346;12.396;2024-03-02T15:38:53;14.70;90.50
16758;DHT22;8497;51.346;12.396;2024-03-02T15:41:21;14.70;90.60
16758;DHT22;8497;51.346;12.396;2024-03-02T15:43:52;14.60;90.70
16758;DHT22;8497;51.346;12.396;2024-03-02T15:46:22;14.60;90.70
16758;DHT22;8497;51.346;12.396;2024-03-02T15:48:50;14.50;90.80
16758;DHT22;8497;51.346;12.396;2024-03-02T15:51:21;14.50;90.90
16758;DHT22;8497;51.346;12.396;2024-03-02T15:53:49;14.50;91.00
16758;DHT22;8497;51.346;12.396;2024-03-02T15:56:18;14.50;91.10
16758;DHT22;8497;51.346;12.396;2024-03-02T15:58:50;14.40;91.30
16758;DHT22;8497;51.346;12.396;2024-03-02T16:01:19;14.40;91.40
16758;DHT22;8497;51.346;12.396;2024-03-02T16:03:48;14.30;91.50
16758;DHT22;8497;51.346;12.396;2024-03-02T16:06:20;14.30;91.70
16758;DHT22;8497;51.346;12.396;2024-03-02T16:08:48;14.20;91.70